Time;durP1;ratioP1;P1;durP2;ratioP2;P2;SDS_P1;SDS_P2;PMS_P1;PMS_P2;Temp;Humidity;BMP_temperature;BMP_pressure;BME280_temperature;BME280_humidity;BME280_pressure;Samples;Min_cycle;Max_cycle;Signal;HPM_P1;HPM_P2
2021/12/15 00:00:48;;;;;;;78.70;25.48;;;9.90;99.90;;;;;;5052577;28;20125;-75
2021/12/15 00:03:15;;;;;;;74.97;25.52;;;9.90;99.90;;;;;;5069796;28;20041;-74
2021/12/15 00:05:42;;;;;;;74.10;26.00;;;9.90;99.90;;;;;;5052253;28;20040;-74
2021/12/15 00:08:11;;;;;;;67.15;25.25;;;9.90;99.90;;;;;;5071344;28;20048;-75
2021/12/15 00:10:38;;;;;;;63.90;24.83;;;9.90;99.90;;;;;;5054426;28;20044;-75
2021/12/15 00:13:04;;;;;;;63.95;24.90;;;9.90;99.90;;;;;;5072091;28;20058;-75
2021/12/15 00:15:30;;;;;;;67.00;26.40;;;9.90;99.90;;;;;;5071682;28;20407;-75
2021/12/15 00:17:57;;;;;;;65.68;23.70;;;9.80;99.90;;;;;;5070913;28;20048;-75
2021/12/15 00:20:25;;;;;;;51.33;24.00;;;9.80;99.90;;;;;;5071562;28;20377;-75
2021/12/15 00:22:52;;;;;;;63.17;25.55;;;9.90;99.90;;;;;;5068001;28;20076;-75
2021/12/15 00:25:21;;;;;;;60.45;23.25;;;9.90;99.90;;;;;;5065984;28;20509;-75
2021/12/15 00:27:47;;;;;;;63.15;24.83;;;9.90;99.90;;;;;;5058250;28;20123;-75
2021/12/15 00:30:13;;;;;;;62.05;24.65;;;9.90;99.90;;;;;;5076077;28;20563;-75
2021/12/15 00:32:38;;;;;;;70.30;25.70;;;9.90;99.90;;;;;;5040791;28;20507;-75
2021/12/15 00:35:07;;;;;;;65.53;25.73;;;9.90;99.90;;;;;;5058181;28;20052;-75
2021/12/15 00:37:33;;;;;;;60.58;23.40;;;9.90;99.90;;;;;;5057894;28;20048;-75
2021/12/15 00:39:59;;;;;;;69.07;25.42;;;9.90;99.90;;;;;;5057707;28;20056;-75
2021/12/15 00:42:25;;;;;;;68.20;25.48;;;9.90;99.90;;;;;;5041536;28;20040;-75
2021/12/15 00:44:51;;;;;;;54.22;25.08;;;9.90;99.90;;;;;;5057761;28;20113;-75
2021/12/15 00:47:17;;;;;;;61.00;25.00;;;9.90;99.90;;;;;;5057212;28;20048;-75
2021/12/15 00:49:43;;;;;;;64.13;25.10;;;9.90;99.90;;;;;;5058021;28;20052;-75
2021/12/15 00:52:09;;;;;;;62.13;25.27;;;9.90;99.90;;;;;;5054137;28;20048;-75
2021/12/15 00:54:37;;;;;;;67.18;25.55;;;9.90;99.90;;;;;;5037565;28;20048;-75
2021/12/15 00:57:03;;;;;;;59.17;26.08;;;9.90;99.90;;;;;;5054542;28;20056;-75
2021/12/15 00:59:29;;;;;;;60.88;25.95;;;9.90;99.90;;;;;;5037488;28;20049;-74
2021/12/15 01:01:55;;;;;;;65.63;26.92;;;9.90;99.90;;;;;;5037201;28;20040;-75
2021/12/15 01:04:23;;;;;;;64.35;27.70;;;9.90;99.90;;;;;;5040416;28;20043;-75
2021/12/15 01:06:59;;;;;;;68.32;27.13;;;9.90;99.90;;;;;;5056723;28;20060;-74
2021/12/15 01:09:46;;;;;;;67.63;26.25;;;9.90;99.90;;;;;;5057661;28;20036;-75
2021/12/15 01:20:37;;;;;;;71.18;28.83;;;9.90;99.90;;;;;;5056675;28;20127;-75
2021/12/15 01:23:07;;;;;;;62.60;27.73;;;10.00;99.90;;;;;;5056922;28;20055;-75
2021/12/15 01:25:47;;;;;;;62.92;27.70;;;10.00;99.90;;;;;;5040784;28;20123;-75
2021/12/15 01:28:13;;;;;;;69.57;27.75;;;9.90;99.90;;;;;;5039757;28;20056;-75
2021/12/15 01:30:44;;;;;;;62.83;28.65;;;10.00;99.90;;;;;;5057125;28;20052;-75
2021/12/15 01:33:11;;;;;;;75.68;27.95;;;10.00;99.90;;;;;;5040889;28;20383;-75
2021/12/15 01:35:40;;;;;;;66.75;28.83;;;10.00;99.90;;;;;;5073751;28;20510;-75
2021/12/15 01:38:06;;;;;;;62.35;28.95;;;10.00;99.90;;;;;;5032541;28;20048;-75
2021/12/15 01:40:36;;;;;;;58.13;28.65;;;10.00;99.90;;;;;;5040102;28;20198;-75
2021/12/15 01:43:18;;;;;;;65.72;29.45;;;10.00;99.90;;;;;;5056564;28;20396;-75
2021/12/15 01:48:35;;;;;;;58.95;27.67;;;10.00;99.90;;;;;;5074597;28;20131;-74
2021/12/15 01:51:03;;;;;;;68.95;29.98;;;10.00;99.90;;;;;;5039494;28;20506;-75
2021/12/15 01:53:29;;;;;;;66.07;28.70;;;10.00;99.90;;;;;;5056222;28;20048;-74
2021/12/15 01:55:55;;;;;;;65.68;29.30;;;10.00;99.90;;;;;;5055881;28;20101;-75
2021/12/15 01:58:21;;;;;;;63.17;29.15;;;10.00;99.90;;;;;;5056471;28;20484;-75
2021/12/15 02:00:52;;;;;;;72.88;30.45;;;10.00;99.90;;;;;;5056698;28;20044;-75
2021/12/15 02:03:18;;;;;;;62.15;29.50;;;10.10;99.90;;;;;;5055466;28;20048;-75
2021/12/15 02:05:44;;;;;;;67.00;28.95;;;10.10;99.90;;;;;;5040193;28;20102;-74
2021/12/15 02:08:12;;;;;;;66.88;29.17;;;10.10;99.90;;;;;;5056204;28;20454;-75
2021/12/15 02:10:40;;;;;;;68.13;29.80;;;10.10;99.90;;;;;;5055591;28;20048;-75
2021/12/15 02:13:08;;;;;;;64.57;30.35;;;10.10;99.90;;;;;;5074309;28;20036;-74
2021/12/15 02:15:45;;;;;;;62.42;29.70;;;10.10;99.90;;;;;;5055654;28;20064;-75
2021/12/15 02:18:16;;;;;;;60.75;28.73;;;10.10;99.90;;;;;;5055562;28;20131;-75
2021/12/15 02:20:46;;;;;;;63.13;29.27;;;10.10;99.90;;;;;;5056531;28;20052;-74
2021/12/15 02:23:15;;;;;;;62.13;29.48;;;10.10;99.90;;;;;;5052503;28;20041;-75
2021/12/15 02:25:42;;;;;;;57.63;29.65;;;10.10;99.90;;;;;;5052071;28;20501;-74
2021/12/15 02:28:08;;;;;;;72.25;30.95;;;10.10;99.90;;;;;;5036283;28;20049;-75
2021/12/15 02:34:01;;;;;;;60.92;30.30;;;10.10;99.90;;;;;;5052032;28;20049;-75
2021/12/15 02:38:44;;;;;;;75.27;31.97;;;10.10;99.90;;;;;;5068050;28;20059;-75
2021/12/15 02:41:20;;;;;;;65.63;31.23;;;10.10;99.90;;;;;;5055847;28;20121;-75
2021/12/15 02:43:58;;;;;;;66.05;31.63;;;10.10;99.90;;;;;;5073776;28;20051;-74
2021/12/15 02:46:25;;;;;;;67.50;31.92;;;10.10;99.90;;;;;;5055229;28;20548;-75
2021/12/15 02:48:51;;;;;;;69.10;31.60;;;10.10;99.90;;;;;;5055436;28;20048;-75
2021/12/15 02:51:19;;;;;;;70.43;31.85;;;10.10;99.90;;;;;;5055354;28;20575;-74
2021/12/15 02:53:45;;;;;;;74.88;31.75;;;10.10;99.90;;;;;;5072655;28;20113;-74
2021/12/15 02:56:12;;;;;;;65.88;32.53;;;10.10;99.90;;;;;;5055543;28;20055;-75
2021/12/15 02:58:38;;;;;;;63.08;31.67;;;10.10;99.90;;;;;;5072921;28;20056;-74
2021/12/15 03:01:19;;;;;;;59.08;30.55;;;10.10;99.90;;;;;;5055170;28;20400;-75
2021/12/15 03:06:22;;;;;;;66.15;30.92;;;10.10;99.90;;;;;;5072991;28;20496;-75
2021/12/15 03:08:59;;;;;;;67.33;31.17;;;10.10;99.90;;;;;;5055365;28;20040;-74
2021/12/15 03:16:57;;;;;;;64.85;30.63;;;10.10;99.90;;;;;;5055406;28;20055;-74
2021/12/15 03:19:24;;;;;;;71.43;31.30;;;10.10;99.90;;;;;;5055172;28;20145;-75
2021/12/15 03:21:50;;;;;;;65.95;32.28;;;10.10;99.90;;;;;;5054408;28;20056;-74
2021/12/15 03:24:19;;;;;;;68.20;31.13;;;10.10;99.90;;;;;;5055721;28;20044;-75
2021/12/15 03:26:58;;;;;;;59.15;30.70;;;10.10;99.90;;;;;;5055334;28;20131;-74
2021/12/15 03:33:28;;;;;;;61.72;30.30;;;10.10;99.90;;;;;;5055122;28;20577;-74
2021/12/15 03:37:47;;;;;;;67.10;31.85;;;10.10;99.90;;;;;;5055225;28;20044;-75
2021/12/15 03:40:21;;;;;;;67.25;30.27;;;10.10;99.90;;;;;;5055061;28;20183;-74
2021/12/15 03:43:01;;;;;;;60.63;30.02;;;10.10;99.90;;;;;;5037919;28;20106;-74
2021/12/15 03:45:37;;;;;;;61.22;29.38;;;10.10;99.90;;;;;;5055398;28;20418;-74
2021/12/15 03:48:09;;;;;;;56.85;29.67;;;10.10;99.90;;;;;;5054958;28;20480;-74
2021/12/15 03:50:35;;;;;;;61.25;29.92;;;10.10;99.90;;;;;;5055157;28;20048;-75
2021/12/15 03:53:02;;;;;;;67.45;31.10;;;10.10;99.90;;;;;;5054701;28;20045;-74
2021/12/15 03:55:32;;;;;;;62.03;30.58;;;10.10;99.90;;;;;;5051075;28;20053;-74
2021/12/15 03:57:59;;;;;;;60.47;30.85;;;10.10;99.90;;;;;;5053294;28;20036;-75
2021/12/15 04:00:28;;;;;;;64.82;30.20;;;10.00;99.90;;;;;;5035410;28;20052;-75
2021/12/15 04:02:54;;;;;;;58.97;30.92;;;10.10;99.90;;;;;;5060413;28;20087;-75
2021/12/15 04:05:21;;;;;;;63.10;31.55;;;10.00;99.90;;;;;;5058873;28;20062;-74
2021/12/15 04:07:50;;;;;;;63.60;31.35;;;10.00;99.90;;;;;;5058140;28;20052;-75
2021/12/15 04:10:22;;;;;;;69.00;32.60;;;10.10;99.90;;;;;;5057923;28;20052;-74
2021/12/15 04:12:48;;;;;;;71.32;31.65;;;10.00;99.90;;;;;;5058829;28;20487;-74
2021/12/15 04:18:00;;;;;;;64.95;31.95;;;10.10;99.90;;;;;;5075917;28;20051;-74
2021/12/15 04:20:33;;;;;;;65.00;31.63;;;10.00;99.90;;;;;;5058416;28;20048;-74
2021/12/15 04:23:00;;;;;;;70.43;31.45;;;10.10;99.90;;;;;;5054704;28;20053;-74
2021/12/15 04:25:29;;;;;;;67.72;32.22;;;10.00;99.90;;;;;;5054014;28;20124;-75
2021/12/15 04:28:06;;;;;;;69.40;32.05;;;10.00;99.90;;;;;;5076250;28;20203;-74
2021/12/15 04:30:37;;;;;;;74.50;33.17;;;10.00;99.90;;;;;;5058314;28;20052;-74
2021/12/15 04:33:23;;;;;;;65.18;31.42;;;10.00;99.90;;;;;;5058125;28;20067;-74
2021/12/15 04:35:52;;;;;;;70.07;33.35;;;10.00;99.90;;;;;;5041305;28;20056;-74
2021/12/15 04:38:18;;;;;;;75.80;34.30;;;10.00;99.90;;;;;;5040752;28;20047;-74
2021/12/15 04:40:44;;;;;;;72.55;33.80;;;10.00;99.90;;;;;;5058301;28;20127;-75
2021/12/15 04:43:10;;;;;;;75.05;34.15;;;10.00;99.90;;;;;;5075649;28;20127;-75
2021/12/15 04:45:37;;;;;;;67.15;32.53;;;10.00;99.90;;;;;;5057331;28;20504;-74
2021/12/15 04:48:06;;;;;;;64.90;32.47;;;10.00;99.90;;;;;;5058257;28;20044;-74
2021/12/15 04:50:32;;;;;;;74.60;32.90;;;10.00;99.90;;;;;;5075615;28;20040;-75
2021/12/15 04:53:00;;;;;;;71.20;31.95;;;10.00;99.90;;;;;;5074789;28;20055;-74
2021/12/15 04:55:29;;;;;;;66.45;32.90;;;10.00;99.90;;;;;;5075305;28;20448;-74
2021/12/15 04:57:57;;;;;;;68.60;33.10;;;10.00;99.90;;;;;;5075405;28;20044;-74
2021/12/15 05:00:26;;;;;;;68.32;32.97;;;10.00;99.90;;;;;;5075255;28;20177;-74
2021/12/15 05:02:53;;;;;;;70.10;31.50;;;10.00;99.90;;;;;;5075448;28;20044;-74
2021/12/15 05:05:21;;;;;;;72.82;33.42;;;10.00;99.90;;;;;;5057361;28;20047;-74
2021/12/15 05:07:49;;;;;;;75.18;34.88;;;10.00;99.90;;;;;;5074679;28;20044;-75
2021/12/15 05:10:15;;;;;;;68.93;32.28;;;10.00;99.90;;;;;;5057750;28;20052;-75
2021/12/15 05:12:41;;;;;;;59.88;31.67;;;10.00;99.90;;;;;;5057115;28;20123;-74
2021/12/15 05:15:08;;;;;;;69.88;31.77;;;10.00;99.90;;;;;;5056666;28;20069;-74
2021/12/15 05:17:34;;;;;;;71.05;32.33;;;10.00;99.90;;;;;;5057507;28;20106;-75
2021/12/15 05:20:03;;;;;;;72.20;31.15;;;10.00;99.90;;;;;;5074582;28;20052;-74
2021/12/15 05:22:30;;;;;;;69.05;32.42;;;10.00;99.90;;;;;;5053983;28;20048;-74
2021/12/15 05:24:57;;;;;;;70.55;33.30;;;10.10;99.90;;;;;;5054849;28;20048;-74
2021/12/15 05:27:23;;;;;;;66.18;31.23;;;10.00;99.90;;;;;;5054519;28;20041;-74
2021/12/15 05:29:50;;;;;;;78.60;33.17;;;10.00;99.90;;;;;;5055232;28;20043;-75
2021/12/15 05:32:18;;;;;;;74.72;32.75;;;10.00;99.90;;;;;;5056140;28;20068;-74
2021/12/15 05:34:47;;;;;;;69.47;32.10;;;10.00;99.90;;;;;;5056690;28;20415;-74
2021/12/15 05:37:15;;;;;;;70.93;34.00;;;10.00;99.90;;;;;;5056686;28;20434;-75
2021/12/15 05:39:41;;;;;;;69.70;33.28;;;10.00;99.90;;;;;;5036785;28;20084;-74
2021/12/15 05:42:07;;;;;;;72.25;32.42;;;10.00;99.90;;;;;;5053309;28;20077;-74
2021/12/15 05:44:35;;;;;;;71.13;33.38;;;10.00;99.90;;;;;;5055157;28;20041;-74
2021/12/15 05:47:03;;;;;;;73.57;32.90;;;10.10;99.90;;;;;;5054390;28;20485;-74
2021/12/15 05:49:29;;;;;;;71.70;32.63;;;10.00;99.90;;;;;;5036478;28;20091;-74
2021/12/15 05:51:56;;;;;;;67.18;31.95;;;10.10;99.90;;;;;;5057619;28;20041;-74
2021/12/15 05:54:21;;;;;;;68.78;33.40;;;10.00;99.90;;;;;;5056501;28;20071;-74
2021/12/15 05:56:48;;;;;;;68.88;31.60;;;10.00;99.90;;;;;;5056150;28;20476;-74
2021/12/15 05:59:14;;;;;;;64.50;31.17;;;10.00;99.90;;;;;;5056665;28;20468;-74
2021/12/15 06:01:41;;;;;;;66.90;31.55;;;10.00;99.90;;;;;;5074338;28;20032;-74
2021/12/15 06:04:07;;;;;;;67.45;30.08;;;10.10;99.90;;;;;;5055938;28;20060;-74
2021/12/15 06:06:34;;;;;;;63.03;31.63;;;10.10;99.90;;;;;;5056628;28;20507;-74
2021/12/15 06:09:01;;;;;;;63.90;30.27;;;10.00;99.90;;;;;;5055184;28;20102;-74
2021/12/15 06:11:27;;;;;;;75.18;33.03;;;10.10;99.90;;;;;;5073659;28;20527;-75
2021/12/15 06:13:53;;;;;;;68.60;31.38;;;10.00;99.90;;;;;;5056073;28;20052;-75
2021/12/15 06:16:21;;;;;;;68.90;32.75;;;10.00;99.90;;;;;;5073249;28;20045;-74
2021/12/15 06:18:48;;;;;;;68.75;30.42;;;10.00;99.90;;;;;;5056618;28;20048;-75
2021/12/15 06:21:16;;;;;;;63.97;30.73;;;10.00;99.90;;;;;;5073831;28;20052;-74
2021/12/15 06:23:42;;;;;;;69.13;30.27;;;10.00;99.90;;;;;;5054849;28;20040;-74
2021/12/15 06:26:08;;;;;;;67.75;31.20;;;10.00;99.90;;;;;;5055767;28;20048;-74
2021/12/15 06:28:39;;;;;;;60.53;30.80;;;10.00;99.90;;;;;;5055220;28;20052;-74
2021/12/15 06:31:07;;;;;;;68.90;32.22;;;10.00;99.90;;;;;;5073182;28;20109;-74
2021/12/15 06:33:36;;;;;;;70.20;29.80;;;10.00;99.90;;;;;;5073730;28;20055;-73
2021/12/15 06:36:04;;;;;;;62.33;28.92;;;10.00;99.90;;;;;;5073455;28;20044;-75
2021/12/15 06:38:36;;;;;;;59.35;28.88;;;10.00;99.90;;;;;;5052119;28;20392;-74
2021/12/15 06:41:05;;;;;;;62.05;30.67;;;10.00;99.90;;;;;;5052884;28;20393;-74
2021/12/15 06:43:31;;;;;;;61.03;29.90;;;10.00;99.90;;;;;;5019117;28;20519;-74
2021/12/15 06:59:39;;;;;;;59.83;26.42;;;10.00;99.90;;;;;;5054944;28;20178;-74
2021/12/15 07:02:04;;;;;;;60.53;25.63;;;10.00;99.90;;;;;;5055632;28;20123;-74
2021/12/15 07:04:30;;;;;;;65.82;28.50;;;10.00;99.90;;;;;;5073136;28;20045;-74
2021/12/15 07:06:56;;;;;;;47.78;25.58;;;10.00;99.90;;;;;;5072815;28;20372;-74
2021/12/15 07:09:23;;;;;;;59.63;28.00;;;10.00;99.90;;;;;;5055491;28;20123;-74
2021/12/15 07:11:50;;;;;;;55.08;24.75;;;10.00;99.90;;;;;;5055295;28;20052;-73
2021/12/15 07:14:22;;;;;;;54.67;26.25;;;10.00;99.90;;;;;;5054639;28;20052;-74
2021/12/15 07:16:51;;;;;;;55.95;25.92;;;10.00;99.90;;;;;;5055300;28;20548;-73
2021/12/15 07:19:31;;;;;;;54.75;25.17;;;10.00;99.90;;;;;;5055258;28;20437;-73
2021/12/15 07:22:31;;;;;;;48.78;24.85;;;10.00;99.90;;;;;;5072982;28;20500;-74
2021/12/15 07:24:58;;;;;;;54.60;24.75;;;10.00;99.90;;;;;;5073143;28;20183;-74
2021/12/15 07:27:24;;;;;;;50.33;24.45;;;10.00;99.90;;;;;;5054868;28;20047;-73
2021/12/15 07:29:50;;;;;;;44.38;21.88;;;10.00;99.90;;;;;;5056058;28;20045;-73
2021/12/15 07:32:16;;;;;;;50.22;22.70;;;10.00;99.90;;;;;;5054825;28;20515;-75
2021/12/15 07:34:42;;;;;;;45.55;22.98;;;10.00;99.90;;;;;;5072739;28;20040;-75
2021/12/15 07:37:07;;;;;;;48.95;23.45;;;10.00;99.90;;;;;;5057764;28;20040;-75
2021/12/15 07:39:35;;;;;;;40.97;20.23;;;10.00;99.90;;;;;;5076968;28;20439;-75
2021/12/15 07:42:09;;;;;;;40.78;20.30;;;10.00;99.90;;;;;;5058630;28;20040;-75
2021/12/15 07:44:35;;;;;;;45.70;21.08;;;10.00;99.90;;;;;;5059112;28;20049;-75
2021/12/15 07:47:02;;;;;;;46.33;20.70;;;10.00;99.90;;;;;;5055033;28;20045;-75
2021/12/15 07:49:29;;;;;;;36.33;20.13;;;10.00;99.90;;;;;;5021999;28;20079;-74
2021/12/15 07:52:04;;;;;;;45.30;20.83;;;10.00;99.90;;;;;;5042198;28;20047;-75
2021/12/15 07:54:33;;;;;;;49.17;21.48;;;10.00;99.90;;;;;;5058410;28;20052;-75
2021/12/15 07:57:09;;;;;;;50.90;21.42;;;10.00;99.90;;;;;;5056972;28;20063;-75
2021/12/15 07:59:35;;;;;;;55.65;22.20;;;9.90;99.90;;;;;;5076675;28;20385;-75
2021/12/15 08:02:01;;;;;;;56.83;22.77;;;10.00;99.90;;;;;;5075981;28;20495;-75
2021/12/15 08:04:27;;;;;;;49.05;22.63;;;9.90;99.90;;;;;;5058778;28;20075;-75
2021/12/15 08:06:53;;;;;;;49.63;21.02;;;10.00;99.90;;;;;;5058169;28;21321;-75
2021/12/15 08:09:22;;;;;;;46.05;22.88;;;10.00;99.90;;;;;;5058441;28;20032;-75
2021/12/15 08:11:48;;;;;;;49.25;23.13;;;10.00;99.90;;;;;;5076674;28;20040;-75
2021/12/15 08:14:15;;;;;;;51.30;22.27;;;10.00;99.90;;;;;;5076101;28;20464;-75
2021/12/15 08:16:42;;;;;;;50.63;22.05;;;10.00;99.90;;;;;;5054337;28;20485;-75
2021/12/15 08:19:09;;;;;;;43.70;20.67;;;10.00;99.90;;;;;;5054985;28;20052;-75
2021/12/15 08:21:35;;;;;;;51.90;21.42;;;10.00;99.90;;;;;;5074601;28;20044;-75
2021/12/15 08:24:02;;;;;;;47.08;21.80;;;10.00;99.90;;;;;;5056802;28;20060;-75
2021/12/15 08:26:28;;;;;;;48.08;21.38;;;10.00;99.90;;;;;;5058381;28;20055;-75
2021/12/15 08:28:54;;;;;;;42.85;18.75;;;10.00;99.90;;;;;;5075832;28;20041;-75
2021/12/15 08:31:20;;;;;;;45.20;20.95;;;10.00;99.90;;;;;;5057403;28;20044;-75
2021/12/15 08:33:46;;;;;;;50.05;20.85;;;10.00;99.90;;;;;;5076104;28;20048;-75
2021/12/15 08:36:13;;;;;;;46.53;20.90;;;10.00;99.90;;;;;;5075685;28;20044;-75
2021/12/15 08:38:45;;;;;;;47.20;21.80;;;10.00;99.90;;;;;;5074728;28;20052;-75
2021/12/15 08:41:14;;;;;;;49.53;21.65;;;10.00;99.90;;;;;;5058191;28;20067;-75
2021/12/15 08:43:40;;;;;;;38.58;19.42;;;10.00;99.90;;;;;;5075782;28;20047;-75
2021/12/15 08:46:10;;;;;;;46.05;21.40;;;10.00;99.90;;;;;;5074964;28;20048;-75
2021/12/15 08:48:39;;;;;;;51.60;21.52;;;10.00;99.90;;;;;;5074875;28;20055;-75
2021/12/15 08:51:07;;;;;;;44.30;21.80;;;10.10;99.90;;;;;;5075126;28;20043;-75
2021/12/15 08:53:34;;;;;;;51.50;20.38;;;10.00;99.90;;;;;;5054709;28;20048;-75
2021/12/15 08:56:00;;;;;;;44.22;20.48;;;10.00;99.90;;;;;;5055367;28;20451;-75
2021/12/15 08:58:26;;;;;;;42.95;20.42;;;10.00;99.90;;;;;;5036946;28;20048;-75
2021/12/15 09:00:56;;;;;;;47.30;20.95;;;10.00;99.90;;;;;;5057442;28;20102;-75
2021/12/15 09:03:23;;;;;;;53.75;21.70;;;10.00;99.90;;;;;;5075112;28;20484;-75
2021/12/15 09:05:52;;;;;;;49.90;19.95;;;10.00;99.90;;;;;;5074860;28;20044;-75
2021/12/15 09:08:19;;;;;;;41.03;20.55;;;10.00;99.90;;;;;;5075054;28;20048;-75
2021/12/15 09:10:46;;;;;;;40.33;18.85;;;10.00;99.90;;;;;;5075296;28;20127;-75
2021/12/15 09:13:13;;;;;;;45.58;19.98;;;10.00;99.90;;;;;;5056852;28;20466;-75
2021/12/15 09:15:41;;;;;;;46.05;20.55;;;10.00;99.90;;;;;;5057012;28;20082;-75
2021/12/15 09:18:09;;;;;;;43.03;19.63;;;10.10;99.90;;;;;;5074677;28;20142;-75
2021/12/15 09:20:37;;;;;;;40.90;19.40;;;10.10;99.90;;;;;;5053217;28;20057;-75
2021/12/15 09:23:06;;;;;;;46.42;18.83;;;10.10;99.90;;;;;;5037565;28;20049;-75
2021/12/15 09:25:32;;;;;;;38.75;19.27;;;10.10;99.90;;;;;;5036941;28;20047;-75
2021/12/15 09:27:58;;;;;;;40.03;19.92;;;10.10;99.90;;;;;;5054395;28;20045;-75
2021/12/15 09:30:27;;;;;;;36.05;17.88;;;10.10;99.90;;;;;;5036484;28;20045;-75
2021/12/15 09:32:53;;;;;;;39.70;18.10;;;10.00;99.90;;;;;;5020667;28;20443;-75
2021/12/15 09:35:21;;;;;;;35.50;17.50;;;10.00;99.90;;;;;;5068204;28;20047;-75
2021/12/15 09:37:48;;;;;;;33.78;16.85;;;10.00;99.90;;;;;;5074041;28;20048;-74
2021/12/15 09:40:16;;;;;;;36.28;17.80;;;10.00;99.90;;;;;;5056265;28;20493;-75
2021/12/15 09:42:42;;;;;;;41.05;18.25;;;10.00;99.90;;;;;;5073205;28;21286;-75
2021/12/15 10:07:03;;;;;;;32.58;16.48;;;10.20;99.90;;;;;;5073703;28;20048;-75
2021/12/15 10:17:40;;;;;;;34.63;17.08;;;10.20;99.90;;;;;;5073281;28;20059;-75
2021/12/15 10:20:08;;;;;;;35.92;16.77;;;10.20;99.90;;;;;;5073724;28;20048;-75
2021/12/15 10:22:43;;;;;;;39.55;16.00;;;10.30;99.90;;;;;;5052016;28;20045;-75
2021/12/15 10:25:15;;;;;;;30.88;16.50;;;10.30;99.90;;;;;;5043579;28;20504;-75
2021/12/15 10:27:49;;;;;;;40.70;15.32;;;10.30;99.90;;;;;;5053832;28;20037;-75
2021/12/15 10:30:31;;;;;;;30.10;15.73;;;10.30;99.90;;;;;;5053294;28;20040;-75
2021/12/15 10:33:00;;;;;;;31.85;15.30;;;10.30;99.90;;;;;;5053579;28;20041;-75
2021/12/15 10:35:31;;;;;;;26.25;14.82;;;10.40;99.90;;;;;;5055508;28;20423;-75
2021/12/15 10:38:41;;;;;;;30.92;16.05;;;10.40;99.90;;;;;;5073178;28;20072;-75
2021/12/15 10:41:20;;;;;;;28.23;14.77;;;10.40;99.90;;;;;;5010305;28;20060;-75
2021/12/15 10:44:09;;;;;;;31.92;15.10;;;10.40;99.90;;;;;;5073025;28;20554;-75
2021/12/15 10:46:49;;;;;;;30.05;13.60;;;10.40;99.90;;;;;;5073337;28;20186;-75
2021/12/15 10:49:22;;;;;;;23.95;11.82;;;10.40;99.90;;;;;;5055543;28;20499;-75
2021/12/15 10:52:02;;;;;;;21.20;12.57;;;10.50;99.90;;;;;;5054908;28;20525;-75
2021/12/15 10:54:34;;;;;;;18.92;9.43;;;10.50;99.90;;;;;;5037508;28;20064;-75
2021/12/15 10:57:20;;;;;;;20.23;10.63;;;10.50;99.90;;;;;;5035828;28;20044;-75
2021/12/15 10:59:53;;;;;;;23.50;10.50;;;10.50;99.90;;;;;;5067529;28;20479;-75
2021/12/15 11:02:27;;;;;;;21.20;9.55;;;10.50;99.90;;;;;;5035439;28;20084;-75
2021/12/15 11:05:00;;;;;;;19.45;9.18;;;10.50;99.90;;;;;;5035078;28;20539;-75
2021/12/15 11:07:29;;;;;;;19.42;9.13;;;10.50;99.90;;;;;;5049591;28;20124;-75
2021/12/15 11:09:57;;;;;;;18.63;9.27;;;10.60;99.90;;;;;;5073024;28;20079;-75
2021/12/15 11:12:31;;;;;;;17.55;8.07;;;10.60;99.90;;;;;;5054506;28;20052;-75
2021/12/15 11:15:18;;;;;;;15.65;8.27;;;10.60;99.90;;;;;;5054718;28;20045;-75
2021/12/15 11:17:51;;;;;;;15.98;8.68;;;10.60;99.90;;;;;;5055000;28;20060;-75
2021/12/15 11:20:32;;;;;;;22.13;8.63;;;10.70;99.90;;;;;;5054763;28;20399;-74
2021/12/15 11:23:00;;;;;;;18.17;7.72;;;10.70;99.90;;;;;;5054689;28;20558;-75
2021/12/15 11:25:46;;;;;;;21.23;8.55;;;10.70;99.90;;;;;;5055412;28;20040;-75
2021/12/15 11:28:21;;;;;;;19.63;6.80;;;10.70;99.90;;;;;;5072911;28;20049;-75
2021/12/15 11:30:58;;;;;;;16.92;7.95;;;10.70;99.90;;;;;;5072826;28;20171;-75
2021/12/15 11:33:39;;;;;;;15.10;7.15;;;10.70;99.90;;;;;;5054402;28;20044;-75
2021/12/15 11:36:25;;;;;;;18.80;6.40;;;10.70;99.90;;;;;;5054484;28;20080;-75
2021/12/15 11:39:16;;;;;;;16.75;6.22;;;10.70;99.90;;;;;;5050932;28;20123;-75
2021/12/15 11:41:50;;;;;;;16.63;6.50;;;10.70;99.90;;;;;;5072370;28;20049;-75
2021/12/15 11:44:25;;;;;;;16.90;6.60;;;10.70;99.90;;;;;;5071892;28;20040;-75
2021/12/15 11:46:53;;;;;;;15.50;5.63;;;10.70;99.90;;;;;;5072489;28;20049;-75
2021/12/15 11:49:31;;;;;;;16.63;6.35;;;10.70;99.90;;;;;;5072766;28;20127;-75
2021/12/15 11:52:09;;;;;;;14.35;6.38;;;10.80;99.90;;;;;;5054638;28;20051;-75
2021/12/15 11:54:38;;;;;;;11.88;5.50;;;10.80;99.90;;;;;;5072126;28;20102;-75
2021/12/15 11:57:06;;;;;;;15.25;5.57;;;10.80;99.90;;;;;;5054843;28;20053;-75
2021/12/15 11:59:49;;;;;;;14.70;5.10;;;10.80;99.90;;;;;;5072460;28;20083;-75
2021/12/15 12:02:28;;;;;;;13.68;5.47;;;10.80;99.90;;;;;;5070535;28;20400;-74
2021/12/15 12:05:00;;;;;;;16.90;5.68;;;10.80;99.90;;;;;;5037336;28;20063;-75
2021/12/15 12:07:27;;;;;;;16.80;5.65;;;10.80;99.90;;;;;;5072528;28;20037;-75
2021/12/15 12:09:53;;;;;;;15.73;6.93;;;10.80;99.90;;;;;;5054168;28;20048;-74
2021/12/15 12:12:22;;;;;;;13.05;6.05;;;10.80;99.90;;;;;;5072437;28;20128;-75
2021/12/15 12:14:50;;;;;;;12.60;4.63;;;10.80;99.90;;;;;;5054603;28;20560;-75
2021/12/15 12:17:29;;;;;;;14.70;4.85;;;10.80;99.90;;;;;;5054827;28;20114;-74
2021/12/15 12:20:03;;;;;;;13.38;5.43;;;10.80;99.90;;;;;;5053003;28;20040;-74
2021/12/15 12:22:31;;;;;;;15.10;4.45;;;10.80;99.90;;;;;;5054076;28;20051;-75
2021/12/15 12:25:00;;;;;;;11.95;3.65;;;10.80;99.90;;;;;;5041972;28;20106;-74
2021/12/15 12:27:29;;;;;;;11.77;3.75;;;10.80;99.90;;;;;;5041150;28;20384;-74
2021/12/15 12:29:57;;;;;;;10.98;3.63;;;10.70;99.90;;;;;;5057538;28;20102;-74
2021/12/15 12:32:24;;;;;;;7.50;3.22;;;10.70;99.90;;;;;;5076271;28;20454;-75
2021/12/15 12:34:52;;;;;;;8.77;3.22;;;10.70;99.90;;;;;;5075653;28;20048;-75
2021/12/15 12:37:18;;;;;;;7.65;2.50;;;10.70;99.90;;;;;;5057575;28;20061;-75
2021/12/15 12:39:48;;;;;;;8.02;3.05;;;10.70;99.90;;;;;;5076124;28;20403;-74
2021/12/15 12:42:37;;;;;;;16.88;4.82;;;10.70;99.90;;;;;;5076012;28;20083;-75
2021/12/15 12:45:19;;;;;;;7.78;3.17;;;10.60;99.90;;;;;;5040837;28;20052;-75
2021/12/15 12:59:32;;;;;;;;;;;10.50;99.90;;;;;;5074523;28;20048;-74
2021/12/15 13:01:59;;;;;;;8.18;2.70;;;10.40;99.90;;;;;;5075161;28;19920;-75
2021/12/15 13:04:40;;;;;;;12.15;2.55;;;10.40;99.90;;;;;;5073613;28;20367;-75
2021/12/15 13:07:06;;;;;;;5.28;2.20;;;10.40;99.90;;;;;;5043362;28;20570;-75
2021/12/15 13:09:48;;;;;;;9.13;3.03;;;10.30;99.90;;;;;;5074790;28;20052;-74
2021/12/15 13:12:37;;;;;;;7.78;2.60;;;10.30;99.90;;;;;;5074943;28;20447;-75
2021/12/15 13:15:03;;;;;;;4.65;2.03;;;10.20;99.90;;;;;;5074797;28;20090;-75
2021/12/15 13:17:36;;;;;;;7.25;2.40;;;10.20;99.90;;;;;;5057298;28;20438;-75
2021/12/15 13:20:19;;;;;;;11.68;2.10;;;10.20;99.90;;;;;;5074511;28;20044;-75
2021/12/15 13:23:03;;;;;;;11.52;2.28;;;10.20;99.90;;;;;;5056953;28;20099;-75
2021/12/15 13:31:11;;;;;;;11.23;2.40;;;10.20;99.90;;;;;;5074803;28;20052;-74
2021/12/15 13:33:38;;;;;;;8.90;1.80;;;10.20;99.90;;;;;;5056055;28;20071;-74
2021/12/15 13:36:13;;;;;;;9.77;2.42;;;10.20;99.90;;;;;;5056811;28;20458;-75
2021/12/15 13:38:48;;;;;;;;;;;10.20;99.90;;;;;;5056889;28;20036;-74
2021/12/15 13:41:38;;;;;;;5.83;1.90;;;10.20;99.90;;;;;;5056654;28;19943;-74
2021/12/15 13:44:10;;;;;;;7.47;2.85;;;10.20;99.90;;;;;;5074445;28;20123;-75
2021/12/15 13:46:40;;;;;;;11.02;1.60;;;10.10;99.90;;;;;;5073990;28;20059;-74
2021/12/15 13:49:28;;;;;;;10.55;1.77;;;10.10;99.90;;;;;;5074523;28;20124;-74
2021/12/15 13:52:05;;;;;;;5.13;1.35;;;10.10;99.90;;;;;;5074121;28;20032;-74
2021/12/15 13:54:35;;;;;;;8.50;1.83;;;10.10;99.90;;;;;;5055415;28;20044;-74
2021/12/15 13:57:13;;;;;;;5.68;1.60;;;10.10;99.90;;;;;;5056418;28;20381;-74
2021/12/15 13:59:45;;;;;;;5.70;1.67;;;10.10;99.90;;;;;;5056617;28;20067;-75
2021/12/15 14:02:19;;;;;;;8.73;1.85;;;10.10;99.90;;;;;;5056185;28;20071;-75
2021/12/15 14:04:53;;;;;;;5.28;1.83;;;10.10;99.90;;;;;;5074043;28;20052;-74
2021/12/15 14:07:31;;;;;;;6.43;1.50;;;10.10;99.90;;;;;;5055836;28;20147;-75
2021/12/15 14:10:20;;;;;;;6.68;1.83;;;10.10;99.90;;;;;;5056451;28;20384;-74
2021/12/15 14:12:46;;;;;;;6.63;1.65;;;10.00;99.90;;;;;;5007671;28;20057;-74
2021/12/15 14:15:13;;;;;;;7.80;1.67;;;10.00;99.90;;;;;;5055356;28;20076;-75
2021/12/15 14:17:39;;;;;;;6.18;1.95;;;10.00;99.90;;;;;;5039821;28;20048;-74
2021/12/15 14:20:16;;;;;;;7.30;1.80;;;10.00;99.90;;;;;;5055581;28;20052;-75